sensor_id;sensor_type;location;lat;lon;timestamp;temperature;humidity
23475;DHT22;11910;52.086;21.066;2023-02-03T00:01:18;2.30;99.90
23475;DHT22;11910;52.086;21.066;2023-02-03T00:03:44;2.30;99.90
23475;DHT22;11910;52.086;21.066;2023-02-03T00:06:10;2.30;99.90
23475;DHT22;11910;52.086;21.066;2023-02-03T00:08:37;2.30;99.90
23475;DHT22;11910;52.086;21.066;2023-02-03T00:11:03;2.20;99.90
23475;DHT22;11910;52.086;21.066;2023-02-03T00:13:29;2.20;99.90
23475;DHT22;11910;52.086;21.066;2023-02-03T00:15:54;2.20;99.90
23475;DHT22;11910;52.086;21.066;2023-02-03T00:18:20;2.20;99.90
23475;DHT22;11910;52.086;21.066;2023-02-03T00:20:45;2.10;99.90
23475;DHT22;11910;52.086;21.066;2023-02-03T00:23:11;2.10;99.90
23475;DHT22;11910;52.086;21.066;2023-02-03T00:25:38;2.00;99.90
23475;DHT22;11910;52.086;21.066;2023-02-03T00:28:04;2.00;99.90
23475;DHT22;11910;52.086;21.066;2023-02-03T00:30:32;1.90;99.90
23475;DHT22;11910;52.086;21.066;2023-02-03T00:32:58;1.80;99.90
23475;DHT22;11910;52.086;21.066;2023-02-03T00:35:23;1.80;99.90
23475;DHT22;11910;52.086;21.066;2023-02-03T00:37:56;1.70;99.90
23475;DHT22;11910;52.086;21.066;2023-02-03T00:40:24;1.80;99.90
23475;DHT22;11910;52.086;21.066;2023-02-03T00:42:50;1.80;99.90
23475;DHT22;11910;52.086;21.066;2023-02-03T00:45:16;1.80;99.90
23475;DHT22;11910;52.086;21.066;2023-02-03T00:47:42;1.90;99.90
23475;DHT22;11910;52.086;21.066;2023-02-03T00:50:09;1.90;99.90
23475;DHT22;11910;52.086;21.066;2023-02-03T00:52:35;1.90;99.90
23475;DHT22;11910;52.086;21.066;2023-02-03T00:55:00;1.90;99.90
23475;DHT22;11910;52.086;21.066;2023-02-03T00:57:26;1.90;99.90
23475;DHT22;11910;52.086;21.066;2023-02-03T00:59:52;1.90;99.90
23475;DHT22;11910;52.086;21.066;2023-02-03T01:02:19;1.90;99.90
23475;DHT22;11910;52.086;21.066;2023-02-03T01:04:45;1.90;99.90
23475;DHT22;11910;52.086;21.066;2023-02-03T01:07:10;1.90;99.90
23475;DHT22;11910;52.086;21.066;2023-02-03T01:09:36;1.90;99.90
23475;DHT22;11910;52.086;21.066;2023-02-03T01:12:03;1.90;99.90
23475;DHT22;11910;52.086;21.066;2023-02-03T01:14:29;1.90;99.90
23475;DHT22;11910;52.086;21.066;2023-02-03T01:16:54;1.90;99.90
23475;DHT22;11910;52.086;21.066;2023-02-03T01:19:20;1.90;99.90
23475;DHT22;11910;52.086;21.066;2023-02-03T01:21:46;1.90;99.90
23475;DHT22;11910;52.086;21.066;2023-02-03T01:24:11;1.80;99.90
23475;DHT22;11910;52.086;21.066;2023-02-03T01:26:40;1.80;99.90
23475;DHT22;11910;52.086;21.066;2023-02-03T01:29:06;1.80;99.90
23475;DHT22;11910;52.086;21.066;2023-02-03T01:31:34;1.80;99.90
23475;DHT22;11910;52.086;21.066;2023-02-03T01:34:02;1.90;99.90
23475;DHT22;11910;52.086;21.066;2023-02-03T01:36:29;1.90;99.90
23475;DHT22;11910;52.086;21.066;2023-02-03T01:38:55;1.90;99.90
23475;DHT22;11910;52.086;21.066;2023-02-03T01:41:30;1.80;99.90
23475;DHT22;11910;52.086;21.066;2023-02-03T01:43:57;1.80;99.90
23475;DHT22;11910;52.086;21.066;2023-02-03T01:46:36;1.80;99.90
23475;DHT22;11910;52.086;21.066;2023-02-03T01:49:10;1.80;99.90
23475;DHT22;11910;52.086;21.066;2023-02-03T01:51:39;1.80;99.90
23475;DHT22;11910;52.086;21.066;2023-02-03T01:54:09;1.80;99.90
23475;DHT22;11910;52.086;21.066;2023-02-03T01:56:38;1.80;99.90
23475;DHT22;11910;52.086;21.066;2023-02-03T01:59:05;1.80;99.90
23475;DHT22;11910;52.086;21.066;2023-02-03T02:01:31;1.80;99.90
23475;DHT22;11910;52.086;21.066;2023-02-03T02:03:59;1.80;99.90
23475;DHT22;11910;52.086;21.066;2023-02-03T02:06:25;1.80;99.90
23475;DHT22;11910;52.086;21.066;2023-02-03T02:08:52;1.80;99.90
23475;DHT22;11910;52.086;21.066;2023-02-03T02:11:19;1.80;99.90
23475;DHT22;11910;52.086;21.066;2023-02-03T02:13:49;1.80;99.90
23475;DHT22;11910;52.086;21.066;2023-02-03T02:22:29;1.80;99.90
23475;DHT22;11910;52.086;21.066;2023-02-03T02:38:02;1.70;99.90
23475;DHT22;11910;52.086;21.066;2023-02-03T02:45:53;1.70;99.90
23475;DHT22;11910;52.086;21.066;2023-02-03T02:50:55;1.60;99.90
23475;DHT22;11910;52.086;21.066;2023-02-03T02:53:25;1.70;99.90
23475;DHT22;11910;52.086;21.066;2023-02-03T02:55:53;1.60;99.90
23475;DHT22;11910;52.086;21.066;2023-02-03T02:58:22;1.60;99.90
23475;DHT22;11910;52.086;21.066;2023-02-03T03:00:48;1.70;99.90
23475;DHT22;11910;52.086;21.066;2023-02-03T03:03:22;1.60;99.90
23475;DHT22;11910;52.086;21.066;2023-02-03T03:08:38;1.60;99.90
23475;DHT22;11910;52.086;21.066;2023-02-03T03:11:06;1.60;99.90
23475;DHT22;11910;52.086;21.066;2023-02-03T03:13:35;1.50;99.90
23475;DHT22;11910;52.086;21.066;2023-02-03T03:16:05;1.50;99.90
23475;DHT22;11910;52.086;21.066;2023-02-03T03:18:55;1.50;99.90
23475;DHT22;11910;52.086;21.066;2023-02-03T03:21:30;1.40;99.90
23475;DHT22;11910;52.086;21.066;2023-02-03T03:24:00;1.30;99.90
23475;DHT22;11910;52.086;21.066;2023-02-03T03:26:49;1.30;99.90
23475;DHT22;11910;52.086;21.066;2023-02-03T03:29:23;1.20;99.90
23475;DHT22;11910;52.086;21.066;2023-02-03T03:31:51;1.10;99.90
23475;DHT22;11910;52.086;21.066;2023-02-03T03:34:17;1.00;99.90
23475;DHT22;11910;52.086;21.066;2023-02-03T03:36:53;1.00;99.90
23475;DHT22;11910;52.086;21.066;2023-02-03T03:42:03;0.80;99.90
23475;DHT22;11910;52.086;21.066;2023-02-03T03:44:42;0.80;99.90
23475;DHT22;11910;52.086;21.066;2023-02-03T03:47:11;0.70;99.90
23475;DHT22;11910;52.086;21.066;2023-02-03T03:49:40;0.70;99.90
23475;DHT22;11910;52.086;21.066;2023-02-03T03:52:08;0.70;99.90
23475;DHT22;11910;52.086;21.066;2023-02-03T03:54:36;0.60;99.90
23475;DHT22;11910;52.086;21.066;2023-02-03T03:57:11;0.60;99.90
23475;DHT22;11910;52.086;21.066;2023-02-03T03:59:41;0.50;99.90
23475;DHT22;11910;52.086;21.066;2023-02-03T04:02:09;0.50;99.90
23475;DHT22;11910;52.086;21.066;2023-02-03T04:04:36;0.40;99.90
23475;DHT22;11910;52.086;21.066;2023-02-03T04:07:03;0.40;99.90
23475;DHT22;11910;52.086;21.066;2023-02-03T04:09:28;0.40;99.90
23475;DHT22;11910;52.086;21.066;2023-02-03T04:11:54;0.40;99.90
23475;DHT22;11910;52.086;21.066;2023-02-03T04:14:29;0.30;99.90
23475;DHT22;11910;52.086;21.066;2023-02-03T04:16:56;0.30;99.90
23475;DHT22;11910;52.086;21.066;2023-02-03T04:19:22;0.30;99.90
23475;DHT22;11910;52.086;21.066;2023-02-03T04:21:48;0.30;99.90
23475;DHT22;11910;52.086;21.066;2023-02-03T04:24:13;0.20;99.90
23475;DHT22;11910;52.086;21.066;2023-02-03T04:26:39;0.20;99.90
23475;DHT22;11910;52.086;21.066;2023-02-03T04:29:05;0.20;99.90
23475;DHT22;11910;52.086;21.066;2023-02-03T04:31:30;0.20;99.90
23475;DHT22;11910;52.086;21.066;2023-02-03T04:33:56;0.10;99.90
23475;DHT22;11910;52.086;21.066;2023-02-03T04:36:21;0.10;99.90
23475;DHT22;11910;52.086;21.066;2023-02-03T04:38:48;0.10;99.90
23475;DHT22;11910;52.086;21.066;2023-02-03T04:41:14;0.10;99.90
23475;DHT22;11910;52.086;21.066;2023-02-03T04:43:40;0.10;99.90
23475;DHT22;11910;52.086;21.066;2023-02-03T04:46:05;0.00;99.90
23475;DHT22;11910;52.086;21.066;2023-02-03T04:48:31;0.00;99.90
23475;DHT22;11910;52.086;21.066;2023-02-03T04:51:04;0.00;99.90
23475;DHT22;11910;52.086;21.066;2023-02-03T04:53:30;0.00;99.90
23475;DHT22;11910;52.086;21.066;2023-02-03T04:55:56;0.00;99.90
23475;DHT22;11910;52.086;21.066;2023-02-03T04:58:22;0.00;99.90
23475;DHT22;11910;52.086;21.066;2023-02-03T05:00:47;-0.10;99.90
23475;DHT22;11910;52.086;21.066;2023-02-03T05:03:13;0.00;99.90
23475;DHT22;11910;52.086;21.066;2023-02-03T05:05:38;0.00;99.90
23475;DHT22;11910;52.086;21.066;2023-02-03T05:08:04;0.00;99.90
23475;DHT22;11910;52.086;21.066;2023-02-03T05:10:30;-0.10;99.90
23475;DHT22;11910;52.086;21.066;2023-02-03T05:12:56;-0.10;99.90
23475;DHT22;11910;52.086;21.066;2023-02-03T05:15:21;0.00;99.90
23475;DHT22;11910;52.086;21.066;2023-02-03T05:17:47;-0.10;99.90
23475;DHT22;11910;52.086;21.066;2023-02-03T05:20:12;-0.10;99.90
23475;DHT22;11910;52.086;21.066;2023-02-03T05:22:38;-0.10;99.90
23475;DHT22;11910;52.086;21.066;2023-02-03T05:25:04;-0.10;99.90
23475;DHT22;11910;52.086;21.066;2023-02-03T05:27:30;-0.10;99.90
23475;DHT22;11910;52.086;21.066;2023-02-03T05:29:55;0.00;99.90
23475;DHT22;11910;52.086;21.066;2023-02-03T05:32:21;0.00;99.90
23475;DHT22;11910;52.086;21.066;2023-02-03T05:34:47;0.00;99.90
23475;DHT22;11910;52.086;21.066;2023-02-03T05:37:12;0.00;99.90
23475;DHT22;11910;52.086;21.066;2023-02-03T05:39:38;0.10;99.90
23475;DHT22;11910;52.086;21.066;2023-02-03T05:42:03;0.10;99.90
23475;DHT22;11910;52.086;21.066;2023-02-03T05:44:29;0.00;99.90
23475;DHT22;11910;52.086;21.066;2023-02-03T05:46:57;0.00;99.90
23475;DHT22;11910;52.086;21.066;2023-02-03T05:49:23;0.00;99.90
23475;DHT22;11910;52.086;21.066;2023-02-03T05:51:52;0.00;99.90
23475;DHT22;11910;52.086;21.066;2023-02-03T05:54:17;0.00;99.90
23475;DHT22;11910;52.086;21.066;2023-02-03T05:56:43;0.00;99.90
23475;DHT22;11910;52.086;21.066;2023-02-03T05:59:09;0.00;99.90
23475;DHT22;11910;52.086;21.066;2023-02-03T06:01:35;-0.10;99.90
23475;DHT22;11910;52.086;21.066;2023-02-03T06:04:01;-0.10;99.90
23475;DHT22;11910;52.086;21.066;2023-02-03T06:06:27;-0.10;99.90
23475;DHT22;11910;52.086;21.066;2023-02-03T06:09:07;-0.10;99.90
23475;DHT22;11910;52.086;21.066;2023-02-03T06:11:33;-0.10;99.90
23475;DHT22;11910;52.086;21.066;2023-02-03T06:14:00;-0.10;99.90
23475;DHT22;11910;52.086;21.066;2023-02-03T06:16:26;-0.20;99.90
23475;DHT22;11910;52.086;21.066;2023-02-03T06:18:53;-0.10;99.90
23475;DHT22;11910;52.086;21.066;2023-02-03T06:21:20;-0.20;99.90
23475;DHT22;11910;52.086;21.066;2023-02-03T06:23:46;-0.20;99.90
23475;DHT22;11910;52.086;21.066;2023-02-03T06:26:12;-0.20;99.90
23475;DHT22;11910;52.086;21.066;2023-02-03T06:28:38;-0.20;99.90
23475;DHT22;11910;52.086;21.066;2023-02-03T06:31:04;-0.20;99.90
23475;DHT22;11910;52.086;21.066;2023-02-03T06:33:30;-0.30;99.90
23475;DHT22;11910;52.086;21.066;2023-02-03T06:35:56;-0.30;99.90
23475;DHT22;11910;52.086;21.066;2023-02-03T06:38:21;-0.20;99.90
23475;DHT22;11910;52.086;21.066;2023-02-03T06:40:47;-0.20;99.90
23475;DHT22;11910;52.086;21.066;2023-02-03T06:43:13;-0.20;99.90
23475;DHT22;11910;52.086;21.066;2023-02-03T06:45:39;-0.20;99.90
23475;DHT22;11910;52.086;21.066;2023-02-03T06:48:05;-0.20;99.90
23475;DHT22;11910;52.086;21.066;2023-02-03T06:50:30;-0.20;99.90
23475;DHT22;11910;52.086;21.066;2023-02-03T06:52:56;-0.20;99.90
23475;DHT22;11910;52.086;21.066;2023-02-03T06:55:22;-0.10;99.90
23475;DHT22;11910;52.086;21.066;2023-02-03T06:57:47;-0.10;99.90
23475;DHT22;11910;52.086;21.066;2023-02-03T07:00:15;-0.10;99.90
23475;DHT22;11910;52.086;21.066;2023-02-03T07:02:42;0.00;99.90
23475;DHT22;11910;52.086;21.066;2023-02-03T07:05:08;0.00;99.90
23475;DHT22;11910;52.086;21.066;2023-02-03T07:07:34;0.10;99.90
23475;DHT22;11910;52.086;21.066;2023-02-03T07:10:00;0.20;99.90
23475;DHT22;11910;52.086;21.066;2023-02-03T07:12:26;0.30;99.90
23475;DHT22;11910;52.086;21.066;2023-02-03T07:14:52;0.30;99.90
23475;DHT22;11910;52.086;21.066;2023-02-03T07:17:17;0.40;99.90
23475;DHT22;11910;52.086;21.066;2023-02-03T07:19:43;0.50;99.90
23475;DHT22;11910;52.086;21.066;2023-02-03T07:22:10;0.50;99.90
23475;DHT22;11910;52.086;21.066;2023-02-03T07:24:36;0.60;99.90
23475;DHT22;11910;52.086;21.066;2023-02-03T07:27:01;0.60;99.90
23475;DHT22;11910;52.086;21.066;2023-02-03T07:29:27;0.70;99.90
23475;DHT22;11910;52.086;21.066;2023-02-03T07:31:53;0.70;99.90
23475;DHT22;11910;52.086;21.066;2023-02-03T07:34:18;0.80;99.90
23475;DHT22;11910;52.086;21.066;2023-02-03T07:36:44;0.80;99.90
23475;DHT22;11910;52.086;21.066;2023-02-03T07:39:09;0.80;99.90
23475;DHT22;11910;52.086;21.066;2023-02-03T07:41:35;0.90;99.90
23475;DHT22;11910;52.086;21.066;2023-02-03T07:44:01;0.90;99.90
23475;DHT22;11910;52.086;21.066;2023-02-03T07:46:26;1.00;99.90
23475;DHT22;11910;52.086;21.066;2023-02-03T07:48:52;1.00;99.90
23475;DHT22;11910;52.086;21.066;2023-02-03T07:51:18;1.10;99.90
23475;DHT22;11910;52.086;21.066;2023-02-03T07:53:44;1.20;99.90
23475;DHT22;11910;52.086;21.066;2023-02-03T07:56:09;1.30;99.90
23475;DHT22;11910;52.086;21.066;2023-02-03T07:58:36;1.30;99.90
23475;DHT22;11910;52.086;21.066;2023-02-03T08:01:12;1.40;99.90
23475;DHT22;11910;52.086;21.066;2023-02-03T08:03:39;1.40;99.90
23475;DHT22;11910;52.086;21.066;2023-02-03T08:06:05;1.50;99.90
23475;DHT22;11910;52.086;21.066;2023-02-03T08:08:30;1.50;99.90
23475;DHT22;11910;52.086;21.066;2023-02-03T08:10:56;1.60;99.90
23475;DHT22;11910;52.086;21.066;2023-02-03T08:13:21;1.60;99.90
23475;DHT22;11910;52.086;21.066;2023-02-03T08:15:47;1.70;99.90
23475;DHT22;11910;52.086;21.066;2023-02-03T08:18:13;1.80;99.90
23475;DHT22;11910;52.086;21.066;2023-02-03T08:20:39;1.80;99.90
23475;DHT22;11910;52.086;21.066;2023-02-03T08:23:05;1.90;99.90
23475;DHT22;11910;52.086;21.066;2023-02-03T08:25:30;2.00;99.90
23475;DHT22;11910;52.086;21.066;2023-02-03T08:27:56;2.00;99.90
23475;DHT22;11910;52.086;21.066;2023-02-03T08:30:22;2.10;99.90
23475;DHT22;11910;52.086;21.066;2023-02-03T08:32:48;2.20;99.90
23475;DHT22;11910;52.086;21.066;2023-02-03T08:35:24;2.20;99.90
23475;DHT22;11910;52.086;21.066;2023-02-03T08:37:52;2.30;99.90
23475;DHT22;11910;52.086;21.066;2023-02-03T08:40:22;2.30;99.90
23475;DHT22;11910;52.086;21.066;2023-02-03T08:42:48;2.40;99.90
23475;DHT22;11910;52.086;21.066;2023-02-03T08:45:14;2.40;99.90
23475;DHT22;11910;52.086;21.066;2023-02-03T08:47:39;2.60;99.90
23475;DHT22;11910;52.086;21.066;2023-02-03T08:50:07;2.60;99.90
23475;DHT22;11910;52.086;21.066;2023-02-03T08:52:33;2.60;99.90
23475;DHT22;11910;52.086;21.066;2023-02-03T08:54:59;2.70;99.90
23475;DHT22;11910;52.086;21.066;2023-02-03T08:57:24;2.90;99.90
23475;DHT22;11910;52.086;21.066;2023-02-03T08:59:50;3.00;99.90
23475;DHT22;11910;52.086;21.066;2023-02-03T09:02:17;3.20;99.90
23475;DHT22;11910;52.086;21.066;2023-02-03T09:04:44;3.40;99.90
23475;DHT22;11910;52.086;21.066;2023-02-03T09:07:10;3.60;99.90
23475;DHT22;11910;52.086;21.066;2023-02-03T09:09:36;3.70;99.90
23475;DHT22;11910;52.086;21.066;2023-02-03T09:12:02;3.80;99.90
23475;DHT22;11910;52.086;21.066;2023-02-03T09:14:30;3.70;99.90
23475;DHT22;11910;52.086;21.066;2023-02-03T09:17:01;3.70;99.90
23475;DHT22;11910;52.086;21.066;2023-02-03T09:19:27;3.80;99.70
23475;DHT22;11910;52.086;21.066;2023-02-03T09:21:53;4.00;99.30
23475;DHT22;11910;52.086;21.066;2023-02-03T09:24:19;4.10;99.00
23475;DHT22;11910;52.086;21.066;2023-02-03T09:26:44;4.10;98.30
23475;DHT22;11910;52.086;21.066;2023-02-03T09:29:10;4.10;97.80
23475;DHT22;11910;52.086;21.066;2023-02-03T09:31:35;3.90;98.00
23475;DHT22;11910;52.086;21.066;2023-02-03T09:34:01;4.00;97.40
23475;DHT22;11910;52.086;21.066;2023-02-03T09:36:27;4.00;97.50
23475;DHT22;11910;52.086;21.066;2023-02-03T09:38:52;4.00;98.00
23475;DHT22;11910;52.086;21.066;2023-02-03T09:46:31;4.00;97.00
23475;DHT22;11910;52.086;21.066;2023-02-03T09:49:01;3.90;97.80
23475;DHT22;11910;52.086;21.066;2023-02-03T09:51:33;3.90;97.80
23475;DHT22;11910;52.086;21.066;2023-02-03T09:54:25;4.10;97.50
23475;DHT22;11910;52.086;21.066;2023-02-03T09:56:52;4.20;97.60
23475;DHT22;11910;52.086;21.066;2023-02-03T09:59:20;4.30;96.70
23475;DHT22;11910;52.086;21.066;2023-02-03T10:04:50;4.20;95.90
23475;DHT22;11910;52.086;21.066;2023-02-03T10:07:33;4.10;95.90
23475;DHT22;11910;52.086;21.066;2023-02-03T10:15:23;3.90;96.20
23475;DHT22;11910;52.086;21.066;2023-02-03T10:18:02;3.80;96.00
23475;DHT22;11910;52.086;21.066;2023-02-03T10:20:46;3.80;96.30
23475;DHT22;11910;52.086;21.066;2023-02-03T10:23:19;3.90;96.20
23475;DHT22;11910;52.086;21.066;2023-02-03T10:25:53;3.90;95.80
23475;DHT22;11910;52.086;21.066;2023-02-03T10:28:31;3.90;95.70
23475;DHT22;11910;52.086;21.066;2023-02-03T10:31:01;4.00;95.90
23475;DHT22;11910;52.086;21.066;2023-02-03T10:33:30;3.90;95.80
23475;DHT22;11910;52.086;21.066;2023-02-03T10:39:11;4.00;95.40
23475;DHT22;11910;52.086;21.066;2023-02-03T10:41:39;4.00;95.60
23475;DHT22;11910;52.086;21.066;2023-02-03T10:44:06;4.20;95.80
23475;DHT22;11910;52.086;21.066;2023-02-03T10:46:35;4.30;95.60
23475;DHT22;11910;52.086;21.066;2023-02-03T10:49:02;4.30;95.40
23475;DHT22;11910;52.086;21.066;2023-02-03T10:51:29;4.30;95.30
23475;DHT22;11910;52.086;21.066;2023-02-03T10:53:59;4.30;95.30
23475;DHT22;11910;52.086;21.066;2023-02-03T10:56:45;4.20;95.20
23475;DHT22;11910;52.086;21.066;2023-02-03T10:59:27;4.30;95.20
23475;DHT22;11910;52.086;21.066;2023-02-03T11:01:53;4.20;95.30
23475;DHT22;11910;52.086;21.066;2023-02-03T11:04:31;4.30;95.20
23475;DHT22;11910;52.086;21.066;2023-02-03T11:06:59;4.30;95.10
23475;DHT22;11910;52.086;21.066;2023-02-03T11:09:38;4.20;95.20
23475;DHT22;11910;52.086;21.066;2023-02-03T11:12:18;4.10;95.60
23475;DHT22;11910;52.086;21.066;2023-02-03T11:14:49;4.10;95.70
23475;DHT22;11910;52.086;21.066;2023-02-03T11:17:24;4.10;95.50
23475;DHT22;11910;52.086;21.066;2023-02-03T11:20:00;4.00;95.80
23475;DHT22;11910;52.086;21.066;2023-02-03T11:24:54;4.00;96.10
23475;DHT22;11910;52.086;21.066;2023-02-03T11:27:21;3.90;95.60
23475;DHT22;11910;52.086;21.066;2023-02-03T11:30:09;3.80;95.70
23475;DHT22;11910;52.086;21.066;2023-02-03T11:32:38;3.70;95.90
23475;DHT22;11910;52.086;21.066;2023-02-03T11:35:23;3.70;96.00
23475;DHT22;11910;52.086;21.066;2023-02-03T11:37:57;3.70;96.00
23475;DHT22;11910;52.086;21.066;2023-02-03T11:40:28;3.70;96.20
23475;DHT22;11910;52.086;21.066;2023-02-03T11:51:19;3.70;96.20
23475;DHT22;11910;52.086;21.066;2023-02-03T11:56:15;3.50;95.40
23475;DHT22;11910;52.086;21.066;2023-02-03T11:59:10;3.50;96.20
23475;DHT22;11910;52.086;21.066;2023-02-03T12:15:04;3.90;95.40
23475;DHT22;11910;52.086;21.066;2023-02-03T12:20:49;4.00;95.40
23475;DHT22;11910;52.086;21.066;2023-02-03T12:23:52;4.00;95.30
23475;DHT22;11910;52.086;21.066;2023-02-03T12:26:23;3.90;95.10
23475;DHT22;11910;52.086;21.066;2023-02-03T12:28:55;3.70;95.40
23475;DHT22;11910;52.086;21.066;2023-02-03T12:39:47;3.40;94.80
23475;DHT22;11910;52.086;21.066;2023-02-03T12:45:29;3.30;95.40
23475;DHT22;11910;52.086;21.066;2023-02-03T12:48:09;3.20;95.00
23475;DHT22;11910;52.086;21.066;2023-02-03T12:50:41;3.30;95.50
23475;DHT22;11910;52.086;21.066;2023-02-03T12:53:18;3.30;95.40
23475;DHT22;11910;52.086;21.066;2023-02-03T12:56:01;3.30;95.20
23475;DHT22;11910;52.086;21.066;2023-02-03T12:58:36;3.20;95.20
23475;DHT22;11910;52.086;21.066;2023-02-03T13:03:45;3.30;96.00
23475;DHT22;11910;52.086;21.066;2023-02-03T13:06:23;3.20;95.80
23475;DHT22;11910;52.086;21.066;2023-02-03T13:09:13;3.10;96.00
23475;DHT22;11910;52.086;21.066;2023-02-03T13:11:47;3.10;95.90
23475;DHT22;11910;52.086;21.066;2023-02-03T13:16:54;2.90;98.30
23475;DHT22;11910;52.086;21.066;2023-02-03T13:19:26;2.90;98.40
23475;DHT22;11910;52.086;21.066;2023-02-03T13:21:52;2.90;98.80
23475;DHT22;11910;52.086;21.066;2023-02-03T13:24:19;2.70;98.90
23475;DHT22;11910;52.086;21.066;2023-02-03T13:27:14;2.60;99.70
23475;DHT22;11910;52.086;21.066;2023-02-03T13:30:00;2.50;99.90
23475;DHT22;11910;52.086;21.066;2023-02-03T13:32:39;2.40;99.90
23475;DHT22;11910;52.086;21.066;2023-02-03T13:35:43;2.30;99.90
23475;DHT22;11910;52.086;21.066;2023-02-03T13:40:58;1.90;99.90
23475;DHT22;11910;52.086;21.066;2023-02-03T13:43:34;1.70;99.90
23475;DHT22;11910;52.086;21.066;2023-02-03T13:46:01;1.60;99.90
23475;DHT22;11910;52.086;21.066;2023-02-03T13:48:30;1.50;99.90
23475;DHT22;11910;52.086;21.066;2023-02-03T13:51:15;1.40;99.90
23475;DHT22;11910;52.086;21.066;2023-02-03T13:53:43;1.40;99.90
23475;DHT22;11910;52.086;21.066;2023-02-03T13:56:20;1.30;99.90
23475;DHT22;11910;52.086;21.066;2023-02-03T13:59:29;1.20;99.90
23475;DHT22;11910;52.086;21.066;2023-02-03T14:07:26;1.10;99.90
23475;DHT22;11910;52.086;21.066;2023-02-03T14:12:59;1.00;99.90
23475;DHT22;11910;52.086;21.066;2023-02-03T14:17:53;0.90;99.90
23475;DHT22;11910;52.086;21.066;2023-02-03T14:25:36;0.80;99.90
23475;DHT22;11910;52.086;21.066;2023-02-03T14:28:13;0.80;99.90
23475;DHT22;11910;52.086;21.066;2023-02-03T14:36:41;0.80;99.90
23475;DHT22;11910;52.086;21.066;2023-02-03T14:44:20;0.80;99.90
23475;DHT22;11910;52.086;21.066;2023-02-03T14:47:40;0.80;99.90
23475;DHT22;11910;52.086;21.066;2023-02-03T14:50:26;0.70;99.90
23475;DHT22;11910;52.086;21.066;2023-02-03T14:53:00;0.70;99.90
23475;DHT22;11910;52.086;21.066;2023-02-03T14:56:02;0.70;99.90
23475;DHT22;11910;52.086;21.066;2023-02-03T14:59:00;0.70;99.90
23475;DHT22;11910;52.086;21.066;2023-02-03T15:06:42;0.70;99.90
23475;DHT22;11910;52.086;21.066;2023-02-03T15:11:48;0.70;99.90
23475;DHT22;11910;52.086;21.066;2023-02-03T15:14:21;0.70;99.90
23475;DHT22;11910;52.086;21.066;2023-02-03T15:17:00;0.70;99.90
23475;DHT22;11910;52.086;21.066;2023-02-03T15:19:30;0.60;99.90
23475;DHT22;11910;52.086;21.066;2023-02-03T15:21:56;0.60;99.90
23475;DHT22;11910;52.086;21.066;2023-02-03T15:24:22;0.60;99.90
23475;DHT22;11910;52.086;21.066;2023-02-03T15:26:52;0.60;99.90
23475;DHT22;11910;52.086;21.066;2023-02-03T15:29:24;0.60;99.90
23475;DHT22;11910;52.086;21.066;2023-02-03T15:32:11;0.60;99.90
23475;DHT22;11910;52.086;21.066;2023-02-03T15:34:44;0.60;99.90
23475;DHT22;11910;52.086;21.066;2023-02-03T15:37:19;0.60;99.90
23475;DHT22;11910;52.086;21.066;2023-02-03T15:40:19;0.60;99.90
23475;DHT22;11910;52.086;21.066;2023-02-03T15:42:56;0.60;99.90
23475;DHT22;11910;52.086;21.066;2023-02-03T15:45:27;0.60;99.90
23475;DHT22;11910;52.086;21.066;2023-02-03T15:50:44;0.60;99.90
23475;DHT22;11910;52.086;21.066;2023-02-03T15:55:46;0.60;99.90
23475;DHT22;11910;52.086;21.066;2023-02-03T15:58:22;0.60;99.90
23475;DHT22;11910;52.086;21.066;2023-02-03T16:00:52;0.60;99.90
23475;DHT22;11910;52.086;21.066;2023-02-03T16:03:27;0.60;99.90
23475;DHT22;11910;52.086;21.066;2023-02-03T16:05:53;0.60;99.90
23475;DHT22;11910;52.086;21.066;2023-02-03T16:08:42;0.60;99.90
23475;DHT22;11910;52.086;21.066;2023-02-03T16:13:55;0.60;99.90
23475;DHT22;11910;52.086;21.066;2023-02-03T16:16:25;0.60;99.90
23475;DHT22;11910;52.086;21.066;2023-02-03T16:19:15;0.60;99.90
23475;DHT22;11910;52.086;21.066;2023-02-03T16:33:15;0.70;99.90
23475;DHT22;11910;52.086;21.066;2023-02-03T16:36:11;0.70;99.90
23475;DHT22;11910;52.086;21.066;2023-02-03T16:38:57;0.60;99.90
23475;DHT22;11910;52.086;21.066;2023-02-03T16:41:44;0.70;99.90
23475;DHT22;11910;52.086;21.066;2023-02-03T16:44:28;0.60;99.90
23475;DHT22;11910;52.086;21.066;2023-02-03T16:47:27;0.70;99.90
23475;DHT22;11910;52.086;21.066;2023-02-03T16:50:31;0.70;99.90
23475;DHT22;11910;52.086;21.066;2023-02-03T16:53:20;0.70;99.90
23475;DHT22;11910;52.086;21.066;2023-02-03T16:55:47;0.70;99.90
23475;DHT22;11910;52.086;21.066;2023-02-03T16:58:13;0.70;99.90
23475;DHT22;11910;52.086;21.066;2023-02-03T17:00:40;0.70;99.90
23475;DHT22;11910;52.086;21.066;2023-02-03T17:03:15;0.70;99.90
23475;DHT22;11910;52.086;21.066;2023-02-03T17:05:42;0.70;99.90
23475;DHT22;11910;52.086;21.066;2023-02-03T17:08:09;0.70;99.90
23475;DHT22;11910;52.086;21.066;2023-02-03T17:10:35;0.70;99.90
23475;DHT22;11910;52.086;21.066;2023-02-03T17:13:02;0.70;99.90
23475;DHT22;11910;52.086;21.066;2023-02-03T17:15:27;0.70;99.90
23475;DHT22;11910;52.086;21.066;2023-02-03T17:17:53;0.70;99.90
23475;DHT22;11910;52.086;21.066;2023-02-03T17:20:19;0.70;99.90
23475;DHT22;11910;52.086;21.066;2023-02-03T17:22:44;0.70;99.90
23475;DHT22;11910;52.086;21.066;2023-02-03T17:25:10;0.70;99.90
23475;DHT22;11910;52.086;21.066;2023-02-03T17:27:35;0.70;99.90
23475;DHT22;11910;52.086;21.066;2023-02-03T17:30:01;0.70;99.90
23475;DHT22;11910;52.086;21.066;2023-02-03T17:32:27;0.70;99.90
23475;DHT22;11910;52.086;21.066;2023-02-03T17:34:53;0.70;99.90
23475;DHT22;11910;52.086;21.066;2023-02-03T17:37:18;0.80;99.90
23475;DHT22;11910;52.086;21.066;2023-02-03T17:39:44;0.80;99.90
23475;DHT22;11910;52.086;21.066;2023-02-03T17:42:10;0.80;99.90
23475;DHT22;11910;52.086;21.066;2023-02-03T17:44:35;0.80;99.90
23475;DHT22;11910;52.086;21.066;2023-02-03T17:47:01;0.70;99.90
23475;DHT22;11910;52.086;21.066;2023-02-03T17:49:27;0.70;99.90
23475;DHT22;11910;52.086;21.066;2023-02-03T17:51:53;0.80;99.90
23475;DHT22;11910;52.086;21.066;2023-02-03T17:54:19;0.80;99.90
23475;DHT22;11910;52.086;21.066;2023-02-03T17:56:44;0.80;99.90
23475;DHT22;11910;52.086;21.066;2023-02-03T17:59:14;0.80;99.90
23475;DHT22;11910;52.086;21.066;2023-02-03T18:01:39;0.80;99.90
23475;DHT22;11910;52.086;21.066;2023-02-03T18:04:05;0.80;99.90
23475;DHT22;11910;52.086;21.066;2023-02-03T18:06:33;0.80;99.90
23475;DHT22;11910;52.086;21.066;2023-02-03T18:09:00;0.80;99.90
23475;DHT22;11910;52.086;21.066;2023-02-03T18:11:28;0.80;99.90
23475;DHT22;11910;52.086;21.066;2023-02-03T18:13:54;0.80;99.90
23475;DHT22;11910;52.086;21.066;2023-02-03T18:16:24;0.80;99.90
23475;DHT22;11910;52.086;21.066;2023-02-03T18:18:51;0.80;99.90
23475;DHT22;11910;52.086;21.066;2023-02-03T18:21:19;0.80;99.90